createdAt,value
2018-08-06T00:00:27.256Z,19.38
2018-08-06T00:01:27.318Z,19.24
2018-08-06T00:02:27.379Z,19.30
2018-08-06T00:03:27.441Z,19.31
2018-08-06T00:04:27.502Z,19.31
2018-08-06T00:05:27.562Z,19.13
2018-08-06T00:06:27.625Z,19.12
2018-08-06T00:07:27.686Z,19.13
2018-08-06T00:08:27.746Z,19.16
2018-08-06T00:09:27.806Z,19.05
2018-08-06T00:10:27.868Z,19.12
2018-08-06T00:11:28.180Z,19.15
2018-08-06T00:12:27.990Z,19.09
2018-08-06T00:13:28.051Z,18.97
2018-08-06T00:14:28.114Z,19.06
2018-08-06T00:15:28.175Z,18.99
2018-08-06T00:16:28.234Z,18.94
2018-08-06T00:17:28.294Z,19.01
2018-08-06T00:18:28.356Z,19.12
2018-08-06T00:19:28.417Z,19.12
2018-08-06T00:20:28.478Z,18.96
2018-08-06T00:21:28.540Z,19.06
2018-08-06T00:22:28.599Z,18.97
2018-08-06T00:23:28.661Z,19.05
2018-08-06T00:24:28.721Z,18.94
2018-08-06T00:25:28.782Z,18.90
2018-08-06T00:26:28.844Z,18.87
2018-08-06T00:27:28.905Z,18.87
2018-08-06T00:28:28.966Z,18.91
2018-08-06T00:29:29.069Z,18.86
2018-08-06T00:30:29.088Z,18.78
2018-08-06T00:31:29.148Z,18.82
2018-08-06T00:32:29.208Z,18.83
2018-08-06T00:33:29.269Z,18.86
2018-08-06T00:34:29.331Z,18.83
2018-08-06T00:35:29.392Z,18.87
2018-08-06T00:36:29.454Z,18.89
2018-08-06T00:37:29.514Z,18.89
2018-08-06T00:38:29.573Z,18.89
2018-08-06T00:39:29.636Z,18.84
2018-08-06T00:40:29.696Z,18.82
2018-08-06T00:41:29.756Z,18.82
2018-08-06T00:42:29.820Z,18.72
2018-08-06T00:43:29.878Z,18.83
2018-08-06T00:44:29.938Z,18.82
2018-08-06T00:45:30.041Z,18.82
2018-08-06T00:46:30.062Z,18.75
2018-08-06T00:47:30.126Z,18.74
2018-08-06T00:48:30.184Z,18.76
2018-08-06T00:49:30.243Z,18.64
2018-08-06T00:50:30.306Z,18.68
2018-08-06T00:51:30.366Z,18.62
2018-08-06T00:52:30.425Z,18.49
2018-08-06T00:53:30.486Z,18.50
2018-08-06T00:54:30.547Z,18.41
2018-08-06T00:55:30.610Z,18.44
2018-08-06T00:56:30.666Z,18.38
2018-08-06T00:57:30.729Z,18.44
2018-08-06T00:58:30.789Z,18.56
2018-08-06T00:59:30.850Z,18.56
2018-08-06T01:00:30.910Z,18.51
2018-08-06T01:01:30.973Z,18.49
2018-08-06T01:02:31.035Z,18.32
2018-08-06T01:03:31.095Z,18.31
2018-08-06T01:04:31.153Z,18.20
2018-08-06T01:05:31.213Z,18.28
2018-08-06T01:06:31.276Z,18.21
2018-08-06T01:07:31.336Z,18.31
2018-08-06T01:08:31.395Z,18.31
2018-08-06T01:09:31.456Z,18.39
2018-08-06T01:10:31.517Z,18.34
2018-08-06T01:11:31.578Z,18.44
2018-08-06T01:12:31.638Z,18.36
2018-08-06T01:13:31.700Z,18.35
2018-08-06T01:14:31.760Z,18.29
2018-08-06T01:15:31.820Z,18.32
2018-08-06T01:16:31.881Z,18.31
2018-08-06T01:17:31.941Z,18.20
2018-08-06T01:18:32.002Z,18.17
2018-08-06T01:19:32.064Z,18.28
2018-08-06T01:20:32.128Z,18.20
2018-08-06T01:21:32.183Z,18.14
2018-08-06T01:22:32.244Z,18.14
2018-08-06T01:23:32.306Z,18.10
2018-08-06T01:24:32.365Z,18.14
2018-08-06T01:25:32.428Z,18.10
2018-08-06T01:26:32.487Z,18.16
2018-08-06T01:27:32.546Z,18.04
2018-08-06T01:28:32.607Z,18.09
2018-08-06T01:29:32.668Z,17.92
2018-08-06T01:30:32.732Z,17.83
2018-08-06T01:31:32.790Z,17.87
2018-08-06T01:32:32.849Z,17.89
2018-08-06T01:33:32.912Z,17.77
2018-08-06T01:34:32.972Z,17.80
2018-08-06T01:35:33.032Z,17.84
2018-08-06T01:36:33.092Z,17.80
2018-08-06T01:37:33.157Z,17.77
2018-08-06T01:38:33.213Z,17.73
2018-08-06T01:39:33.274Z,17.80
2018-08-06T01:40:33.334Z,17.83
2018-08-06T01:41:33.395Z,17.83
2018-08-06T01:42:33.455Z,17.86
2018-08-06T01:43:33.518Z,17.92
2018-08-06T01:44:33.577Z,17.81
2018-08-06T01:45:33.637Z,17.86
2018-08-06T01:46:33.698Z,17.80
2018-08-06T01:47:33.757Z,17.87
2018-08-06T01:48:33.849Z,17.87
2018-08-06T01:49:33.879Z,17.84
2018-08-06T01:50:33.939Z,17.77
2018-08-06T01:51:33.999Z,17.80
2018-08-06T01:52:34.058Z,17.63
2018-08-06T01:53:34.118Z,17.66
2018-08-06T01:54:34.181Z,17.76
2018-08-06T01:55:34.241Z,17.79
2018-08-06T01:56:34.299Z,17.77
2018-08-06T01:57:34.361Z,17.76
2018-08-06T01:58:34.421Z,17.62
2018-08-06T01:59:34.483Z,17.66
2018-08-06T02:00:34.541Z,17.62
2018-08-06T02:01:34.602Z,17.62
2018-08-06T02:02:34.662Z,17.62
2018-08-06T02:03:34.723Z,17.60
2018-08-06T02:04:34.782Z,17.60
2018-08-06T02:05:34.846Z,17.47
2018-08-06T02:06:34.902Z,17.54
2018-08-06T02:07:34.963Z,17.51
2018-08-06T02:08:35.024Z,17.54
2018-08-06T02:09:35.084Z,17.60
2018-08-06T02:10:35.146Z,17.47
2018-08-06T02:11:35.204Z,17.53
2018-08-06T02:12:35.514Z,17.46
2018-08-06T02:13:35.326Z,17.35
2018-08-06T02:14:35.385Z,17.42
2018-08-06T02:15:35.446Z,17.49
2018-08-06T02:16:35.507Z,17.38
2018-08-06T02:17:35.570Z,17.42
2018-08-06T02:18:35.626Z,17.39
2018-08-06T02:19:35.686Z,17.40
2018-08-06T02:20:35.748Z,17.40
2018-08-06T02:21:35.806Z,17.39
2018-08-06T02:22:35.866Z,17.32
2018-08-06T02:23:35.929Z,17.36
2018-08-06T02:24:35.986Z,17.27
2018-08-06T02:25:36.047Z,17.28
2018-08-06T02:26:36.108Z,17.36
2018-08-06T02:27:36.168Z,17.33
2018-08-06T02:28:36.227Z,17.30
2018-08-06T02:29:36.287Z,17.32
2018-08-06T02:30:36.349Z,17.25
2018-08-06T02:31:36.410Z,17.30
2018-08-06T02:32:36.719Z,17.30
2018-08-06T02:33:36.529Z,17.28
2018-08-06T02:34:36.590Z,17.21
2018-08-06T02:35:36.650Z,17.24
2018-08-06T02:36:36.712Z,17.25
2018-08-06T02:37:36.770Z,17.32
2018-08-06T02:38:36.830Z,17.28
2018-08-06T02:39:36.891Z,17.27
2018-08-06T02:40:36.951Z,17.28
2018-08-06T02:41:37.009Z,17.22
2018-08-06T02:42:37.069Z,17.18
2018-08-06T02:43:37.129Z,17.20
2018-08-06T02:44:37.189Z,17.09
2018-08-06T02:45:37.249Z,17.07
2018-08-06T02:46:37.310Z,17.02
2018-08-06T02:47:37.370Z,17.05
2018-08-06T02:48:37.429Z,17.05
2018-08-06T02:49:37.489Z,17.05
2018-08-06T02:50:37.551Z,17.07
2018-08-06T02:51:37.613Z,17.05
2018-08-06T02:52:37.685Z,17.03
2018-08-06T02:53:37.980Z,16.99
2018-08-06T02:54:37.790Z,16.92
2018-08-06T02:55:37.851Z,16.95
2018-08-06T02:56:37.914Z,16.85
2018-08-06T02:57:37.971Z,16.84
2018-08-06T02:58:38.030Z,16.81
2018-08-06T02:59:38.090Z,16.82
2018-08-06T03:00:38.150Z,16.84
2018-08-06T03:01:38.211Z,16.84
2018-08-06T03:02:38.276Z,16.81
2018-08-06T03:03:38.330Z,16.82
2018-08-06T03:04:38.390Z,16.80
2018-08-06T03:05:38.452Z,16.78
2018-08-06T03:06:38.513Z,16.82
2018-08-06T03:07:38.570Z,16.80
2018-08-06T03:08:38.628Z,16.81
2018-08-06T03:09:38.691Z,16.77
2018-08-06T03:10:38.751Z,16.67
2018-08-06T03:11:38.811Z,16.70
2018-08-06T03:12:38.868Z,16.65
2018-08-06T03:13:38.929Z,16.59
2018-08-06T03:14:38.989Z,16.57
2018-08-06T03:15:39.050Z,16.62
2018-08-06T03:16:39.108Z,16.65
2018-08-06T03:17:39.170Z,16.65
2018-08-06T03:18:39.229Z,16.65
2018-08-06T03:19:39.289Z,16.50
2018-08-06T03:20:39.348Z,16.62
2018-08-06T03:21:39.410Z,16.57
2018-08-06T03:22:39.471Z,16.65
2018-08-06T03:23:39.529Z,16.67
2018-08-06T03:24:39.590Z,16.57
2018-08-06T03:25:39.648Z,16.72
2018-08-06T03:26:39.708Z,16.63
2018-08-06T03:27:39.768Z,16.54
2018-08-06T03:28:39.828Z,16.52
2018-08-06T03:29:39.900Z,16.57
2018-08-06T03:30:39.948Z,16.51
2018-08-06T03:31:40.012Z,16.42
2018-08-06T03:32:40.067Z,16.40
2018-08-06T03:33:40.128Z,16.36
2018-08-06T03:34:40.187Z,16.23
2018-08-06T03:35:40.247Z,16.41
2018-08-06T03:36:40.306Z,16.30
2018-08-06T03:37:40.369Z,16.36
2018-08-06T03:38:40.676Z,16.32
2018-08-06T03:39:40.487Z,16.42
2018-08-06T03:40:40.546Z,16.34
2018-08-06T03:41:40.605Z,16.32
2018-08-06T03:42:40.665Z,16.34
2018-08-06T03:43:40.726Z,16.23
2018-08-06T03:44:40.786Z,16.29
2018-08-06T03:45:40.845Z,16.40
2018-08-06T03:46:40.904Z,16.41
2018-08-06T03:47:40.964Z,16.36
2018-08-06T03:48:41.024Z,16.36
2018-08-06T03:49:41.084Z,16.32
2018-08-06T03:50:41.143Z,16.36
2018-08-06T03:51:41.205Z,16.34
2018-08-06T03:52:41.303Z,16.22
2018-08-06T03:53:41.324Z,16.17
2018-08-06T03:54:41.382Z,16.08
2018-08-06T03:55:41.442Z,16.13
2018-08-06T03:56:41.560Z,16.17
2018-08-06T03:57:41.562Z,16.23
2018-08-06T03:58:41.872Z,16.22
2018-08-06T03:59:41.681Z,16.25
2018-08-06T04:00:41.774Z,16.26
2018-08-06T04:01:41.839Z,16.30
2018-08-06T04:02:41.915Z,16.23
2018-08-06T04:03:41.994Z,16.26
2018-08-06T04:04:41.979Z,16.26
2018-08-06T04:05:42.039Z,16.22
2018-08-06T04:06:42.146Z,16.27
2018-08-06T04:07:42.182Z,16.25
2018-08-06T04:08:42.251Z,16.22
2018-08-06T04:09:42.282Z,16.18
2018-08-06T04:10:42.337Z,16.25
2018-08-06T04:11:42.398Z,16.27
2018-08-06T04:12:42.459Z,16.26
2018-08-06T04:13:42.516Z,16.18
2018-08-06T04:14:42.575Z,16.16
2018-08-06T04:15:42.635Z,16.16
2018-08-06T04:16:42.694Z,16.13
2018-08-06T04:17:42.754Z,16.03
2018-08-06T04:18:42.814Z,16.17
2018-08-06T04:19:42.929Z,16.17
2018-08-06T04:20:42.932Z,16.17
2018-08-06T04:21:42.993Z,16.22
2018-08-06T04:22:43.052Z,16.13
2018-08-06T04:23:43.113Z,16.06
2018-08-06T04:24:43.174Z,16.17
2018-08-06T04:25:43.231Z,16.07
2018-08-06T04:26:43.291Z,16.06
2018-08-06T04:27:43.351Z,16.06
2018-08-06T04:28:43.411Z,16.07
2018-08-06T04:29:43.470Z,16.08
2018-08-06T04:30:43.529Z,15.99
2018-08-06T04:31:43.589Z,16.03
2018-08-06T04:32:43.662Z,16.01
2018-08-06T04:33:43.709Z,16.07
2018-08-06T04:34:43.769Z,16.06
2018-08-06T04:35:43.828Z,15.99
2018-08-06T04:36:43.886Z,15.91
2018-08-06T04:37:43.946Z,15.93
2018-08-06T04:38:44.007Z,15.92
2018-08-06T04:39:44.067Z,16.03
2018-08-06T04:40:44.730Z,15.99
2018-08-06T04:41:44.185Z,16.04
2018-08-06T04:42:44.245Z,15.98
2018-08-06T04:43:44.305Z,15.95
2018-08-06T04:44:44.364Z,15.95
2018-08-06T04:45:44.428Z,15.92
2018-08-06T04:46:44.486Z,15.92
2018-08-06T04:47:44.550Z,15.91
2018-08-06T04:48:44.602Z,15.99
2018-08-06T04:49:44.663Z,15.89
2018-08-06T04:50:44.721Z,15.93
2018-08-06T04:51:44.781Z,16.03
2018-08-06T04:52:44.841Z,15.96
2018-08-06T04:53:44.902Z,15.95
2018-08-06T04:54:44.963Z,15.92
2018-08-06T04:55:45.020Z,15.95
2018-08-06T04:56:45.078Z,15.89
2018-08-06T04:57:45.139Z,15.86
2018-08-06T04:58:45.198Z,15.92
2018-08-06T04:59:45.331Z,15.93
2018-08-06T05:00:45.317Z,15.96
2018-08-06T05:01:45.376Z,15.91
2018-08-06T05:02:45.441Z,15.91
2018-08-06T05:03:45.498Z,15.96
2018-08-06T05:04:45.555Z,15.89
2018-08-06T05:05:45.615Z,15.95
2018-08-06T05:06:45.675Z,15.98
2018-08-06T05:07:45.735Z,16.01
2018-08-06T05:08:45.795Z,16.01
2018-08-06T05:09:45.853Z,16.07
2018-08-06T05:10:45.916Z,16.03
2018-08-06T05:11:45.973Z,16.04
2018-08-06T05:12:46.031Z,16.16
2018-08-06T05:13:46.211Z,16.16
2018-08-06T05:14:46.151Z,16.30
2018-08-06T05:15:46.211Z,16.18
2018-08-06T05:16:46.280Z,16.25
2018-08-06T05:17:46.336Z,16.25
2018-08-06T05:18:46.393Z,16.30
2018-08-06T05:19:46.453Z,16.26
2018-08-06T05:20:46.509Z,16.32
2018-08-06T05:21:46.591Z,16.37
2018-08-06T05:22:46.629Z,16.26
2018-08-06T05:23:46.688Z,16.36
2018-08-06T05:24:46.777Z,16.36
2018-08-06T05:25:46.807Z,16.36
2018-08-06T05:26:46.866Z,16.40
2018-08-06T05:27:46.930Z,16.37
2018-08-06T05:28:46.985Z,16.34
2018-08-06T05:29:47.045Z,16.33
2018-08-06T05:30:47.125Z,16.36
2018-08-06T05:31:47.593Z,16.47
2018-08-06T05:32:47.226Z,16.48
2018-08-06T05:33:47.283Z,16.47
2018-08-06T05:34:47.347Z,16.63
2018-08-06T05:35:47.404Z,16.66
2018-08-06T05:36:47.464Z,16.60
2018-08-06T05:37:47.524Z,16.60
2018-08-06T05:38:47.587Z,16.69
2018-08-06T05:39:47.643Z,16.69
2018-08-06T05:40:47.704Z,16.72
2018-08-06T05:41:47.763Z,16.77
2018-08-06T05:42:47.824Z,16.82
2018-08-06T05:43:47.884Z,16.87
2018-08-06T05:44:47.943Z,16.82
2018-08-06T05:45:48.003Z,16.85
2018-08-06T05:46:48.063Z,16.81
2018-08-06T05:47:48.122Z,16.95
2018-08-06T05:48:48.182Z,16.88
2018-08-06T05:49:48.242Z,17.03
2018-08-06T05:50:48.303Z,17.05
2018-08-06T05:51:48.368Z,17.07
2018-08-06T05:52:48.422Z,17.12
2018-08-06T05:53:48.482Z,17.18
2018-08-06T05:54:48.543Z,17.24
2018-08-06T05:55:48.603Z,17.27
2018-08-06T05:56:48.662Z,17.32
2018-08-06T05:57:48.724Z,17.35
2018-08-06T05:58:48.784Z,17.38
2018-08-06T05:59:48.843Z,17.35
2018-08-06T06:00:48.903Z,17.51
2018-08-06T06:01:49.523Z,17.54
2018-08-06T06:02:49.546Z,17.57
2018-08-06T06:03:49.089Z,17.57
2018-08-06T06:04:49.147Z,17.58
2018-08-06T06:05:49.210Z,17.55
2018-08-06T06:06:49.266Z,17.62
2018-08-06T06:07:49.325Z,17.65
2018-08-06T06:08:49.384Z,17.80
2018-08-06T06:09:49.445Z,17.79
2018-08-06T06:10:49.504Z,17.86
2018-08-06T06:11:49.567Z,17.83
2018-08-06T06:12:49.626Z,17.94
2018-08-06T06:13:49.686Z,17.98
2018-08-06T06:14:49.746Z,18.10
2018-08-06T06:15:50.502Z,18.16
2018-08-06T06:16:49.867Z,18.21
2018-08-06T06:17:49.928Z,18.26
2018-08-06T06:18:49.989Z,18.31
2018-08-06T06:19:50.049Z,18.32
2018-08-06T06:20:50.111Z,18.32
2018-08-06T06:21:50.171Z,18.59
2018-08-06T06:22:50.231Z,18.72
2018-08-06T06:23:50.295Z,18.90
2018-08-06T06:24:50.353Z,19.28
2018-08-06T06:25:50.447Z,19.39
2018-08-06T06:26:50.473Z,19.53
2018-08-06T06:28:50.595Z,19.52
2018-08-06T06:29:50.656Z,19.55
2018-08-06T06:30:50.717Z,19.52
2018-08-06T06:31:50.778Z,19.52
2018-08-06T06:32:50.839Z,19.55
2018-08-06T06:33:50.899Z,19.53
2018-08-06T06:34:50.988Z,19.53
2018-08-06T06:35:51.021Z,19.72
2018-08-06T06:36:51.082Z,19.67
2018-08-06T06:37:51.144Z,19.79
2018-08-06T06:38:51.205Z,19.86
2018-08-06T06:39:51.267Z,19.87
2018-08-06T06:40:51.326Z,19.89
2018-08-06T06:41:51.512Z,20.34
2018-08-06T06:42:51.449Z,20.51
2018-08-06T06:43:51.512Z,20.69
2018-08-06T06:44:51.572Z,20.61
2018-08-06T06:45:51.635Z,20.69
2018-08-06T06:46:51.696Z,20.64
2018-08-06T06:47:51.757Z,20.61
2018-08-06T06:48:51.834Z,20.60
2018-08-06T06:49:51.881Z,20.61
2018-08-06T06:50:51.941Z,20.61
2018-08-06T06:51:52.004Z,20.69
2018-08-06T06:52:52.065Z,20.73
2018-08-06T06:53:52.128Z,20.75
2018-08-06T06:54:52.188Z,20.78
2018-08-06T06:55:52.251Z,20.79
2018-08-06T06:56:52.311Z,20.87
2018-08-06T06:57:52.373Z,20.90
2018-08-06T06:58:52.435Z,20.82
2018-08-06T06:59:52.514Z,20.94
2018-08-06T07:00:52.560Z,21.01
2018-08-06T07:01:52.620Z,20.94
2018-08-06T07:02:52.683Z,21.03
2018-08-06T07:03:52.746Z,21.06
2018-08-06T07:04:52.813Z,21.06
2018-08-06T07:05:52.868Z,21.09
2018-08-06T07:06:52.940Z,21.09
2018-08-06T07:07:52.993Z,21.28
2018-08-06T07:08:53.055Z,21.26
2018-08-06T07:09:53.115Z,21.36
2018-08-06T07:10:53.179Z,21.40
2018-08-06T07:11:53.604Z,21.40
2018-08-06T07:12:53.304Z,21.46
2018-08-06T07:13:53.483Z,21.56
2018-08-06T07:14:53.986Z,21.66
2018-08-06T07:15:53.491Z,21.64
2018-08-06T07:16:53.558Z,21.75
2018-08-06T07:17:53.615Z,21.93
2018-08-06T07:18:53.679Z,21.99
2018-08-06T07:19:53.743Z,22.02
2018-08-06T07:20:53.803Z,22.02
2018-08-06T07:21:53.864Z,22.06
2018-08-06T07:22:53.927Z,22.12
2018-08-06T07:23:53.992Z,22.17
2018-08-06T07:24:54.053Z,22.15
2018-08-06T07:25:54.121Z,22.26
2018-08-06T07:26:54.183Z,22.33
2018-08-06T07:27:54.245Z,22.35
2018-08-06T07:28:54.307Z,22.51
2018-08-06T07:29:54.369Z,22.44
2018-08-06T07:30:54.428Z,22.60
2018-08-06T07:31:54.491Z,22.66
2018-08-06T07:32:54.553Z,22.63
2018-08-06T07:33:54.617Z,22.76
2018-08-06T07:34:54.680Z,22.86
2018-08-06T07:35:54.744Z,22.86
2018-08-06T07:36:54.804Z,22.75
2018-08-06T07:37:54.867Z,22.89
2018-08-06T07:38:54.930Z,22.99
2018-08-06T07:39:54.994Z,23.07
2018-08-06T07:40:55.095Z,23.11
2018-08-06T07:41:55.119Z,23.26
2018-08-06T07:42:55.185Z,23.19
2018-08-06T07:43:55.246Z,23.18
2018-08-06T07:44:55.308Z,23.18
2018-08-06T07:45:55.901Z,23.11
2018-08-06T07:46:56.050Z,23.14
2018-08-06T07:47:55.512Z,23.19
2018-08-06T07:48:56.610Z,23.23
2018-08-06T07:49:56.212Z,23.34
2018-08-06T07:50:56.489Z,23.35
2018-08-06T07:51:56.340Z,23.38
2018-08-06T07:52:56.894Z,23.54
2018-08-06T07:53:55.877Z,23.77
2018-08-06T07:54:55.940Z,23.72
2018-08-06T07:55:56.155Z,23.74
2018-08-06T07:56:56.067Z,23.72
2018-08-06T07:57:56.131Z,23.82
2018-08-06T07:58:56.194Z,24.02
2018-08-06T07:59:56.258Z,24.12
2018-08-06T08:00:56.354Z,24.14
2018-08-06T08:01:56.388Z,24.23
2018-08-06T08:02:56.448Z,24.27
2018-08-06T08:03:56.512Z,24.29
2018-08-06T08:04:56.575Z,24.45
2018-08-06T08:05:56.640Z,24.45
2018-08-06T08:06:57.343Z,24.55
2018-08-06T08:07:57.324Z,24.71
2018-08-06T08:08:57.441Z,24.84
2018-08-06T08:09:57.631Z,24.98
2018-08-06T08:10:56.957Z,24.94
2018-08-06T08:11:57.026Z,24.92
2018-08-06T08:12:57.085Z,24.89
2018-08-06T08:13:57.148Z,25.07
2018-08-06T08:14:57.213Z,25.02
2018-08-06T08:15:57.278Z,25.11
2018-08-06T08:16:57.343Z,25.05
2018-08-06T08:17:57.404Z,25.16
2018-08-06T08:18:57.472Z,25.30
2018-08-06T08:19:57.607Z,25.38
2018-08-06T08:20:57.718Z,25.56
2018-08-06T08:21:57.660Z,25.64
2018-08-06T08:22:57.725Z,25.57
2018-08-06T08:23:57.792Z,25.63
2018-08-06T08:24:57.855Z,25.69
2018-08-06T08:25:57.943Z,25.71
2018-08-06T08:26:57.982Z,25.78
2018-08-06T08:27:58.046Z,25.82
2018-08-06T08:28:58.699Z,25.76
2018-08-06T08:29:58.175Z,25.81
2018-08-06T08:30:58.240Z,25.71
2018-08-06T08:31:58.305Z,25.78
2018-08-06T08:32:58.369Z,26.01
2018-08-06T08:33:59.080Z,26.12
2018-08-06T08:34:58.498Z,26.09
2018-08-06T08:35:58.582Z,26.16
2018-08-06T08:36:58.626Z,26.11
2018-08-06T08:37:58.692Z,26.17
2018-08-06T08:38:58.757Z,26.27
2018-08-06T08:39:58.821Z,26.35
2018-08-06T08:40:58.888Z,26.28
2018-08-06T08:41:58.950Z,26.39
2018-08-06T08:42:59.015Z,26.46
2018-08-06T08:43:59.080Z,26.47
2018-08-06T08:44:59.145Z,26.60
2018-08-06T08:45:59.209Z,26.72
2018-08-06T08:46:59.274Z,26.69
2018-08-06T08:47:59.340Z,26.83
2018-08-06T08:48:59.408Z,26.79
2018-08-06T08:49:59.469Z,26.78
2018-08-06T08:50:59.534Z,26.97
2018-08-06T08:51:59.599Z,27.01
2018-08-06T08:52:59.672Z,27.01
2018-08-06T08:54:00.047Z,26.98
2018-08-06T08:54:59.794Z,27.15
2018-08-06T08:55:59.859Z,27.18
2018-08-06T08:56:59.924Z,27.24
2018-08-06T08:57:59.989Z,27.25
2018-08-06T08:59:00.120Z,27.28
2018-08-06T09:00:00.129Z,27.34
2018-08-06T09:01:00.220Z,27.28
2018-08-06T09:02:00.253Z,27.24
2018-08-06T09:03:00.317Z,27.20
2018-08-06T09:04:00.386Z,27.16
2018-08-06T09:05:00.449Z,27.20
2018-08-06T09:06:00.512Z,27.27
2018-08-06T09:07:00.579Z,27.30
2018-08-06T09:08:00.642Z,27.40
2018-08-06T09:09:00.713Z,27.35
2018-08-06T09:10:00.773Z,27.61
2018-08-06T09:11:00.839Z,27.66
2018-08-06T09:12:00.909Z,27.83
2018-08-06T09:13:00.969Z,27.65
2018-08-06T09:14:01.077Z,27.53
2018-08-06T09:15:01.103Z,27.53
2018-08-06T09:16:01.168Z,27.72
2018-08-06T09:17:01.231Z,27.87
2018-08-06T09:18:01.300Z,27.91
2018-08-06T09:19:01.365Z,27.99
2018-08-06T09:20:01.430Z,27.93
2018-08-06T09:21:01.494Z,27.87
2018-08-06T09:22:01.561Z,28.11
2018-08-06T09:23:01.634Z,28.18
2018-08-06T09:24:01.693Z,28.17
2018-08-06T09:25:01.759Z,28.48
2018-08-06T09:26:01.824Z,28.58
2018-08-06T09:27:01.891Z,28.72
2018-08-06T09:28:01.957Z,28.73
2018-08-06T09:29:02.021Z,28.82
2018-08-06T09:30:02.092Z,28.79
2018-08-06T09:31:02.156Z,28.94
2018-08-06T09:32:02.220Z,28.97
2018-08-06T09:33:02.285Z,29.08
2018-08-06T09:34:02.401Z,29.10
2018-08-06T09:35:02.417Z,29.10
2018-08-06T09:36:02.483Z,29.30
2018-08-06T09:37:02.551Z,29.35
2018-08-06T09:38:02.617Z,29.36
2018-08-06T09:39:02.684Z,29.35
2018-08-06T09:40:02.756Z,29.32
2018-08-06T09:41:02.816Z,29.37
2018-08-06T09:42:02.882Z,29.44
2018-08-06T09:43:02.948Z,29.41
2018-08-06T09:44:03.015Z,29.45
2018-08-06T09:45:03.081Z,29.48
2018-08-06T09:46:03.149Z,29.49
2018-08-06T09:47:03.557Z,29.69
2018-08-06T09:48:03.281Z,29.84
2018-08-06T09:49:03.348Z,29.82
2018-08-06T09:50:03.414Z,29.86
2018-08-06T09:51:03.481Z,29.88
2018-08-06T09:52:04.242Z,29.82
2018-08-06T09:53:03.614Z,29.86
2018-08-06T09:54:03.681Z,29.86
2018-08-06T09:55:03.752Z,29.78
2018-08-06T09:56:03.816Z,29.88
2018-08-06T09:57:04.286Z,29.91
2018-08-06T09:58:03.950Z,29.97
2018-08-06T09:59:04.022Z,29.95
2018-08-06T10:00:04.083Z,30.00
2018-08-06T10:01:04.150Z,30.13
2018-08-06T10:02:04.581Z,30.37
2018-08-06T10:03:04.284Z,30.37
2018-08-06T10:04:04.353Z,30.38
2018-08-06T10:05:04.418Z,30.38
2018-08-06T10:06:04.562Z,30.53
2018-08-06T10:07:04.557Z,30.57
2018-08-06T10:08:04.620Z,30.61
2018-08-06T10:09:04.696Z,30.68
2018-08-06T10:10:04.754Z,30.78
2018-08-06T10:11:04.842Z,30.93
2018-08-06T10:12:04.898Z,31.03
2018-08-06T10:13:04.955Z,31.13
2018-08-06T10:14:05.441Z,31.05
2018-08-06T10:15:05.736Z,30.90
2018-08-06T10:16:05.689Z,30.97
2018-08-06T10:17:05.710Z,30.90
2018-08-06T10:18:05.818Z,30.91
2018-08-06T10:19:05.783Z,31.07
2018-08-06T10:20:05.429Z,31.16
2018-08-06T10:21:05.496Z,31.32
2018-08-06T10:22:05.565Z,31.50
2018-08-06T10:23:05.633Z,31.49
2018-08-06T10:24:05.702Z,31.42
2018-08-06T10:25:05.771Z,31.47
2018-08-06T10:26:05.837Z,31.27
2018-08-06T10:27:05.908Z,31.37
2018-08-06T10:28:05.977Z,31.59
2018-08-06T10:29:06.047Z,31.62
2018-08-06T10:30:06.165Z,31.79
2018-08-06T10:31:06.188Z,31.95
2018-08-06T10:32:06.257Z,32.09
2018-08-06T10:33:06.328Z,32.31
2018-08-06T10:34:06.398Z,32.53
2018-08-06T10:35:06.469Z,32.59
2018-08-06T10:36:06.597Z,32.63
2018-08-06T10:37:07.613Z,32.80
2018-08-06T10:38:06.684Z,32.06
2018-08-06T10:39:07.291Z,32.50
2018-08-06T10:40:06.828Z,32.84
2018-08-06T10:41:06.900Z,33.41
2018-08-06T10:42:06.973Z,33.87
2018-08-06T10:43:07.047Z,34.24
2018-08-06T10:44:07.120Z,34.69
2018-08-06T10:45:07.193Z,34.94
2018-08-06T10:46:07.267Z,35.28
2018-08-06T10:47:07.390Z,35.52
2018-08-06T10:48:07.415Z,35.85
2018-08-06T10:49:08.138Z,35.62
2018-08-06T10:50:07.562Z,35.92
2018-08-06T10:51:07.637Z,36.15
2018-08-06T10:52:07.711Z,36.53
2018-08-06T10:53:07.787Z,35.87
2018-08-06T10:54:07.862Z,36.19
2018-08-06T10:55:07.936Z,35.84
2018-08-06T10:56:08.013Z,35.87
2018-08-06T10:57:08.089Z,35.89
2018-08-06T10:58:08.161Z,35.55
2018-08-06T10:59:08.237Z,35.96
2018-08-06T11:00:08.314Z,36.05
2018-08-06T11:01:08.388Z,36.03
2018-08-06T11:02:08.463Z,34.94
2018-08-06T11:03:08.540Z,34.69
2018-08-06T11:04:08.619Z,35.32
2018-08-06T11:05:08.691Z,35.85
2018-08-06T11:06:08.767Z,35.29
2018-08-06T11:07:08.843Z,34.52
2018-08-06T11:08:08.922Z,34.37
2018-08-06T11:09:08.995Z,34.49
2018-08-06T11:10:09.071Z,34.21
2018-08-06T11:11:09.149Z,34.08
2018-08-06T11:12:09.224Z,34.72
2018-08-06T11:13:09.299Z,35.24
2018-08-06T11:14:09.458Z,35.89
2018-08-06T11:15:09.450Z,36.40
2018-08-06T11:16:09.526Z,36.72
2018-08-06T11:17:09.601Z,36.79
2018-08-06T11:18:09.678Z,36.93
2018-08-06T11:19:09.753Z,37.09
2018-08-06T11:20:09.829Z,37.05
2018-08-06T11:21:09.904Z,37.18
2018-08-06T11:22:09.981Z,36.75
2018-08-06T11:23:10.058Z,36.99
2018-08-06T11:24:10.133Z,36.65
2018-08-06T11:25:10.208Z,36.57
2018-08-06T11:26:10.288Z,37.18
2018-08-06T11:27:10.363Z,36.93
2018-08-06T11:28:10.448Z,37.04
2018-08-06T11:29:10.514Z,37.81
2018-08-06T11:30:10.591Z,38.19
2018-08-06T11:31:10.668Z,37.97
2018-08-06T11:32:10.745Z,38.12
2018-08-06T11:33:10.821Z,37.49
2018-08-06T11:34:10.898Z,38.07
2018-08-06T11:35:10.977Z,38.14
2018-08-06T11:36:11.053Z,37.99
2018-08-06T11:37:11.129Z,37.91
2018-08-06T11:38:11.213Z,37.49
2018-08-06T11:39:11.285Z,36.96
2018-08-06T11:40:11.364Z,36.48
2018-08-06T11:41:11.439Z,36.78
2018-08-06T11:42:11.516Z,37.47
2018-08-06T11:43:11.592Z,37.81
2018-08-06T11:44:11.670Z,38.02
2018-08-06T11:45:11.752Z,38.33
2018-08-06T11:46:11.825Z,37.16
2018-08-06T11:47:11.901Z,35.73
2018-08-06T11:48:11.980Z,34.87
2018-08-06T11:49:12.057Z,34.90
2018-08-06T11:50:12.133Z,35.58
2018-08-06T11:51:12.210Z,35.78
2018-08-06T11:52:12.287Z,35.83
2018-08-06T11:53:12.366Z,36.37
2018-08-06T11:54:12.441Z,37.06
2018-08-06T11:55:12.518Z,37.66
2018-08-06T11:56:12.599Z,37.35
2018-08-06T11:57:12.674Z,37.28
2018-08-06T11:58:12.750Z,36.87
2018-08-06T11:59:12.828Z,35.92
2018-08-06T12:00:12.903Z,35.76
2018-08-06T12:01:13.018Z,36.13
2018-08-06T12:02:13.056Z,35.91
2018-08-06T12:03:13.134Z,35.20
2018-08-06T12:04:13.212Z,35.55
2018-08-06T12:05:13.287Z,36.57
2018-08-06T12:06:13.363Z,37.11
2018-08-06T12:07:13.440Z,37.47
2018-08-06T12:08:13.517Z,38.02
2018-08-06T12:09:13.594Z,38.18
2018-08-06T12:10:13.672Z,38.12
2018-08-06T12:11:13.747Z,38.44
2018-08-06T12:12:13.823Z,38.70
2018-08-06T12:13:13.900Z,38.38
2018-08-06T12:14:13.974Z,38.82
2018-08-06T12:15:14.056Z,38.56
2018-08-06T12:16:14.129Z,38.60
2018-08-06T12:17:14.204Z,38.71
2018-08-06T12:18:14.282Z,38.81
2018-08-06T12:19:14.358Z,38.38
2018-08-06T12:20:14.485Z,38.21
2018-08-06T12:21:14.512Z,38.79
2018-08-06T12:22:14.588Z,38.28
2018-08-06T12:23:14.704Z,37.53
2018-08-06T12:24:14.743Z,37.99
2018-08-06T12:25:14.823Z,37.56
2018-08-06T12:26:15.036Z,37.84
2018-08-06T12:27:14.982Z,37.21
2018-08-06T12:28:15.052Z,37.66
2018-08-06T12:29:15.129Z,37.99
2018-08-06T12:30:15.204Z,38.41
2018-08-06T12:31:15.284Z,38.31
2018-08-06T12:32:15.359Z,38.97
2018-08-06T12:33:15.434Z,38.58
2018-08-06T12:34:15.515Z,38.71
2018-08-06T12:35:15.589Z,39.29
2018-08-06T12:36:15.666Z,39.56
2018-08-06T12:37:15.742Z,39.46
2018-08-06T12:38:15.875Z,39.61
2018-08-06T12:39:15.898Z,39.16
2018-08-06T12:40:15.975Z,39.29
2018-08-06T12:41:16.051Z,38.59
2018-08-06T12:42:16.132Z,38.40
2018-08-06T12:43:16.456Z,38.62
2018-08-06T12:44:16.284Z,39.16
2018-08-06T12:45:16.360Z,39.29
2018-08-06T12:46:16.514Z,39.35
2018-08-06T12:47:16.518Z,39.50
2018-08-06T12:48:16.594Z,39.32
2018-08-06T12:49:16.669Z,38.87
2018-08-06T12:50:16.748Z,39.32
2018-08-06T12:51:16.824Z,38.89
2018-08-06T12:52:16.912Z,39.27
2018-08-06T12:53:16.979Z,38.86
2018-08-06T12:54:17.056Z,39.14